sensor_id;sensor_type;location;lat;lon;timestamp;P1;durP1;ratioP1;P2;durP2;ratioP2
28296;SDS011;62078;49.366;8.172;2023-01-08T08:55:17;3.85;;;2.10;;
28296;SDS011;62078;49.366;8.172;2023-01-08T08:57:43;4.07;;;2.33;;
28296;SDS011;62078;49.366;8.172;2023-01-08T09:00:11;3.92;;;2.08;;
28296;SDS011;62078;49.366;8.172;2023-01-08T09:02:37;4.05;;;1.67;;
28296;SDS011;62078;49.366;8.172;2023-01-08T09:05:03;4.03;;;1.77;;
28296;SDS011;62078;49.366;8.172;2023-01-08T09:07:30;4.32;;;2.00;;
28296;SDS011;62078;49.366;8.172;2023-01-08T09:09:56;3.38;;;1.95;;
28296;SDS011;62078;49.366;8.172;2023-01-08T09:12:22;4.45;;;1.85;;
28296;SDS011;62078;49.366;8.172;2023-01-08T09:14:47;7.72;;;2.20;;
28296;SDS011;62078;49.366;8.172;2023-01-08T09:17:18;14.18;;;2.85;;
28296;SDS011;62078;49.366;8.172;2023-01-08T09:19:45;14.57;;;3.40;;
28296;SDS011;62078;49.366;8.172;2023-01-08T09:22:11;12.40;;;2.75;;
28296;SDS011;62078;49.366;8.172;2023-01-08T09:24:37;10.38;;;2.75;;
28296;SDS011;62078;49.366;8.172;2023-01-08T09:27:03;9.93;;;2.83;;
28296;SDS011;62078;49.366;8.172;2023-01-08T09:29:28;10.80;;;3.40;;
28296;SDS011;62078;49.366;8.172;2023-01-08T09:31:54;14.70;;;3.60;;
28296;SDS011;62078;49.366;8.172;2023-01-08T09:34:21;12.23;;;4.80;;
28296;SDS011;62078;49.366;8.172;2023-01-08T09:36:47;9.20;;;3.78;;
28296;SDS011;62078;49.366;8.172;2023-01-08T09:39:13;9.60;;;3.80;;
28296;SDS011;62078;49.366;8.172;2023-01-08T09:41:40;10.20;;;3.90;;
28296;SDS011;62078;49.366;8.172;2023-01-08T09:44:14;12.85;;;5.07;;
28296;SDS011;62078;49.366;8.172;2023-01-08T09:46:42;12.13;;;4.85;;
28296;SDS011;62078;49.366;8.172;2023-01-08T09:49:10;12.00;;;4.93;;
28296;SDS011;62078;49.366;8.172;2023-01-08T09:51:41;13.98;;;4.43;;
28296;SDS011;62078;49.366;8.172;2023-01-08T09:54:09;11.13;;;4.97;;
28296;SDS011;62078;49.366;8.172;2023-01-08T09:56:39;11.30;;;5.20;;
28296;SDS011;62078;49.366;8.172;2023-01-08T09:59:05;11.82;;;4.70;;
28296;SDS011;62078;49.366;8.172;2023-01-08T10:01:36;11.27;;;5.03;;
28296;SDS011;62078;49.366;8.172;2023-01-08T10:04:24;9.13;;;4.80;;
28296;SDS011;62078;49.366;8.172;2023-01-08T10:09:28;10.25;;;4.32;;
28296;SDS011;62078;49.366;8.172;2023-01-08T10:11:57;14.25;;;5.35;;
28296;SDS011;62078;49.366;8.172;2023-01-08T10:14:35;9.48;;;4.03;;
28296;SDS011;62078;49.366;8.172;2023-01-08T10:17:04;9.23;;;4.40;;
28296;SDS011;62078;49.366;8.172;2023-01-08T10:19:37;10.10;;;4.88;;
28296;SDS011;62078;49.366;8.172;2023-01-08T10:22:04;8.02;;;4.28;;
28296;SDS011;62078;49.366;8.172;2023-01-08T10:24:40;9.77;;;4.25;;
28296;SDS011;62078;49.366;8.172;2023-01-08T10:27:16;9.73;;;4.35;;
28296;SDS011;62078;49.366;8.172;2023-01-08T10:29:48;10.07;;;4.05;;
28296;SDS011;62078;49.366;8.172;2023-01-08T10:32:17;7.05;;;3.40;;
28296;SDS011;62078;49.366;8.172;2023-01-08T10:34:48;11.70;;;4.05;;
28296;SDS011;62078;49.366;8.172;2023-01-08T10:37:23;18.23;;;4.82;;
28296;SDS011;62078;49.366;8.172;2023-01-08T10:39:54;8.25;;;4.22;;
28296;SDS011;62078;49.366;8.172;2023-01-08T10:42:31;11.98;;;4.47;;
28296;SDS011;62078;49.366;8.172;2023-01-08T10:44:59;11.95;;;3.78;;
28296;SDS011;62078;49.366;8.172;2023-01-08T10:47:29;13.40;;;3.78;;
28296;SDS011;62078;49.366;8.172;2023-01-08T10:50:00;12.75;;;4.03;;
28296;SDS011;62078;49.366;8.172;2023-01-08T10:52:29;7.43;;;3.88;;
28296;SDS011;62078;49.366;8.172;2023-01-08T10:54:58;10.02;;;4.18;;
28296;SDS011;62078;49.366;8.172;2023-01-08T10:57:55;9.68;;;3.92;;
28296;SDS011;62078;49.366;8.172;2023-01-08T11:00:30;12.02;;;3.95;;
28296;SDS011;62078;49.366;8.172;2023-01-08T11:02:59;6.57;;;3.92;;
28296;SDS011;62078;49.366;8.172;2023-01-08T11:05:38;7.25;;;3.72;;
28296;SDS011;62078;49.366;8.172;2023-01-08T11:08:07;6.63;;;3.45;;
28296;SDS011;62078;49.366;8.172;2023-01-08T11:10:40;7.93;;;3.60;;
28296;SDS011;62078;49.366;8.172;2023-01-08T11:13:06;7.20;;;3.53;;
28296;SDS011;62078;49.366;8.172;2023-01-08T11:15:35;6.82;;;3.28;;
28296;SDS011;62078;49.366;8.172;2023-01-08T11:18:21;8.68;;;3.50;;
28296;SDS011;62078;49.366;8.172;2023-01-08T11:20:50;9.30;;;3.97;;
28296;SDS011;62078;49.366;8.172;2023-01-08T11:23:21;6.28;;;3.60;;
28296;SDS011;62078;49.366;8.172;2023-01-08T11:26:02;7.40;;;3.47;;
28296;SDS011;62078;49.366;8.172;2023-01-08T11:34:01;5.22;;;3.03;;
28296;SDS011;62078;49.366;8.172;2023-01-08T11:36:38;8.05;;;3.35;;
28296;SDS011;62078;49.366;8.172;2023-01-08T11:39:13;10.10;;;3.83;;
28296;SDS011;62078;49.366;8.172;2023-01-08T11:41:42;8.63;;;3.38;;
28296;SDS011;62078;49.366;8.172;2023-01-08T11:44:27;6.95;;;3.55;;
28296;SDS011;62078;49.366;8.172;2023-01-08T11:50:21;6.70;;;3.15;;
28296;SDS011;62078;49.366;8.172;2023-01-08T11:58:20;6.78;;;2.78;;
28296;SDS011;62078;49.366;8.172;2023-01-08T12:01:05;5.57;;;3.15;;
28296;SDS011;62078;49.366;8.172;2023-01-08T12:03:41;5.30;;;2.63;;
28296;SDS011;62078;49.366;8.172;2023-01-08T12:09:41;6.38;;;2.85;;
28296;SDS011;62078;49.366;8.172;2023-01-08T12:18:03;6.13;;;2.90;;
28296;SDS011;62078;49.366;8.172;2023-01-08T12:20:57;5.70;;;2.78;;
28296;SDS011;62078;49.366;8.172;2023-01-08T12:26:32;5.22;;;3.00;;
28296;SDS011;62078;49.366;8.172;2023-01-08T12:29:10;7.07;;;2.90;;
28296;SDS011;62078;49.366;8.172;2023-01-08T12:34:20;4.50;;;2.35;;
28296;SDS011;62078;49.366;8.172;2023-01-08T12:37:04;4.60;;;2.63;;
28296;SDS011;62078;49.366;8.172;2023-01-08T12:42:40;6.53;;;2.70;;
28296;SDS011;62078;49.366;8.172;2023-01-08T12:45:13;5.53;;;2.63;;
28296;SDS011;62078;49.366;8.172;2023-01-08T12:47:43;4.35;;;2.10;;
28296;SDS011;62078;49.366;8.172;2023-01-08T12:50:23;4.90;;;2.50;;
28296;SDS011;62078;49.366;8.172;2023-01-08T12:56:02;6.78;;;2.55;;
28296;SDS011;62078;49.366;8.172;2023-01-08T12:58:42;5.97;;;2.40;;
28296;SDS011;62078;49.366;8.172;2023-01-08T13:04:10;6.07;;;2.40;;
28296;SDS011;62078;49.366;8.172;2023-01-08T13:06:37;4.78;;;2.70;;
28296;SDS011;62078;49.366;8.172;2023-01-08T13:09:20;5.65;;;2.13;;
28296;SDS011;62078;49.366;8.172;2023-01-08T13:11:50;4.72;;;2.40;;
28296;SDS011;62078;49.366;8.172;2023-01-08T13:14:17;7.43;;;2.70;;
28296;SDS011;62078;49.366;8.172;2023-01-08T13:16:50;5.25;;;2.15;;
28296;SDS011;62078;49.366;8.172;2023-01-08T13:19:27;5.88;;;2.40;;
28296;SDS011;62078;49.366;8.172;2023-01-08T13:22:15;5.55;;;2.60;;
28296;SDS011;62078;49.366;8.172;2023-01-08T13:25:07;4.55;;;2.13;;
28296;SDS011;62078;49.366;8.172;2023-01-08T13:27:33;4.93;;;2.50;;
28296;SDS011;62078;49.366;8.172;2023-01-08T13:29:59;4.30;;;2.08;;
28296;SDS011;62078;49.366;8.172;2023-01-08T13:37:42;4.50;;;2.00;;
28296;SDS011;62078;49.366;8.172;2023-01-08T13:43:00;5.68;;;2.13;;
28296;SDS011;62078;49.366;8.172;2023-01-08T13:45:29;4.22;;;2.10;;
28296;SDS011;62078;49.366;8.172;2023-01-08T13:47:55;5.68;;;2.53;;
28296;SDS011;62078;49.366;8.172;2023-01-08T13:50:22;4.97;;;2.08;;
28296;SDS011;62078;49.366;8.172;2023-01-08T13:52:59;5.25;;;2.00;;
28296;SDS011;62078;49.366;8.172;2023-01-08T13:55:34;3.75;;;1.98;;
28296;SDS011;62078;49.366;8.172;2023-01-08T13:58:08;4.35;;;2.10;;
28296;SDS011;62078;49.366;8.172;2023-01-08T14:03:20;6.90;;;2.22;;
28296;SDS011;62078;49.366;8.172;2023-01-08T14:08:28;3.42;;;1.88;;
28296;SDS011;62078;49.366;8.172;2023-01-08T14:10:54;3.70;;;1.85;;
28296;SDS011;62078;49.366;8.172;2023-01-08T14:13:27;5.28;;;2.05;;
28296;SDS011;62078;49.366;8.172;2023-01-08T14:15:58;3.72;;;1.75;;
28296;SDS011;62078;49.366;8.172;2023-01-08T14:18:28;4.57;;;2.45;;
28296;SDS011;62078;49.366;8.172;2023-01-08T14:20:54;8.00;;;2.47;;
28296;SDS011;62078;49.366;8.172;2023-01-08T14:23:22;7.60;;;2.40;;
28296;SDS011;62078;49.366;8.172;2023-01-08T14:25:53;3.38;;;1.75;;
28296;SDS011;62078;49.366;8.172;2023-01-08T14:28:24;3.45;;;1.90;;
28296;SDS011;62078;49.366;8.172;2023-01-08T14:30:51;4.65;;;2.25;;
28296;SDS011;62078;49.366;8.172;2023-01-08T14:33:34;5.50;;;1.70;;
28296;SDS011;62078;49.366;8.172;2023-01-08T14:36:08;5.70;;;1.92;;
28296;SDS011;62078;49.366;8.172;2023-01-08T14:38:34;4.25;;;2.22;;
28296;SDS011;62078;49.366;8.172;2023-01-08T14:41:05;4.10;;;1.80;;
28296;SDS011;62078;49.366;8.172;2023-01-08T14:43:39;3.38;;;1.90;;
28296;SDS011;62078;49.366;8.172;2023-01-08T14:46:13;7.97;;;2.30;;
28296;SDS011;62078;49.366;8.172;2023-01-08T14:48:49;10.98;;;1.92;;
28296;SDS011;62078;49.366;8.172;2023-01-08T14:51:24;6.10;;;2.05;;
28296;SDS011;62078;49.366;8.172;2023-01-08T14:53:54;4.57;;;2.17;;
28296;SDS011;62078;49.366;8.172;2023-01-08T14:56:21;9.65;;;2.15;;
28296;SDS011;62078;49.366;8.172;2023-01-08T14:58:50;5.38;;;2.00;;
28296;SDS011;62078;49.366;8.172;2023-01-08T15:03:46;5.85;;;2.47;;
28296;SDS011;62078;49.366;8.172;2023-01-08T15:06:28;7.82;;;2.10;;
28296;SDS011;62078;49.366;8.172;2023-01-08T15:08:55;9.20;;;2.38;;
28296;SDS011;62078;49.366;8.172;2023-01-08T15:11:28;4.47;;;1.90;;
28296;SDS011;62078;49.366;8.172;2023-01-08T15:13:56;4.72;;;2.08;;
28296;SDS011;62078;49.366;8.172;2023-01-08T15:19:05;13.45;;;2.25;;
28296;SDS011;62078;49.366;8.172;2023-01-08T15:21:36;5.68;;;1.90;;
28296;SDS011;62078;49.366;8.172;2023-01-08T15:24:02;4.93;;;1.90;;
28296;SDS011;62078;49.366;8.172;2023-01-08T15:26:31;4.57;;;2.10;;
28296;SDS011;62078;49.366;8.172;2023-01-08T21:41:28;8.15;;;1.50;;
28296;SDS011;62078;49.366;8.172;2023-01-08T21:44:14;9.88;;;1.75;;
28296;SDS011;62078;49.366;8.172;2023-01-08T21:47:00;6.78;;;1.75;;
28296;SDS011;62078;49.366;8.172;2023-01-08T21:49:27;7.70;;;1.80;;
28296;SDS011;62078;49.366;8.172;2023-01-08T21:51:53;6.05;;;1.83;;
28296;SDS011;62078;49.366;8.172;2023-01-08T21:54:37;6.47;;;2.03;;
28296;SDS011;62078;49.366;8.172;2023-01-08T21:57:04;4.07;;;1.52;;
28296;SDS011;62078;49.366;8.172;2023-01-08T21:59:31;6.60;;;1.50;;
28296;SDS011;62078;49.366;8.172;2023-01-08T22:01:57;4.78;;;1.70;;
28296;SDS011;62078;49.366;8.172;2023-01-08T22:04:23;9.15;;;1.88;;
28296;SDS011;62078;49.366;8.172;2023-01-08T22:06:48;8.65;;;2.42;;
28296;SDS011;62078;49.366;8.172;2023-01-08T22:09:16;5.38;;;1.75;;
28296;SDS011;62078;49.366;8.172;2023-01-08T22:11:42;10.18;;;1.77;;
28296;SDS011;62078;49.366;8.172;2023-01-08T22:14:08;7.15;;;1.67;;
28296;SDS011;62078;49.366;8.172;2023-01-08T22:16:34;5.00;;;1.60;;
28296;SDS011;62078;49.366;8.172;2023-01-08T22:18:59;4.13;;;1.52;;
28296;SDS011;62078;49.366;8.172;2023-01-08T22:21:25;5.18;;;1.67;;
28296;SDS011;62078;49.366;8.172;2023-01-08T22:23:51;5.25;;;1.92;;
28296;SDS011;62078;49.366;8.172;2023-01-08T22:26:17;8.27;;;2.13;;
28296;SDS011;62078;49.366;8.172;2023-01-08T22:28:44;7.43;;;1.63;;
28296;SDS011;62078;49.366;8.172;2023-01-08T22:31:10;4.05;;;1.48;;
28296;SDS011;62078;49.366;8.172;2023-01-08T22:33:37;7.25;;;1.85;;
28296;SDS011;62078;49.366;8.172;2023-01-08T22:36:04;6.38;;;1.90;;
28296;SDS011;62078;49.366;8.172;2023-01-08T22:38:31;7.88;;;2.20;;
28296;SDS011;62078;49.366;8.172;2023-01-08T22:40:57;9.52;;;2.03;;
28296;SDS011;62078;49.366;8.172;2023-01-08T22:43:23;5.60;;;1.98;;
28296;SDS011;62078;49.366;8.172;2023-01-08T22:45:52;9.05;;;1.65;;
28296;SDS011;62078;49.366;8.172;2023-01-08T22:48:19;8.98;;;2.53;;
28296;SDS011;62078;49.366;8.172;2023-01-08T22:50:44;5.90;;;1.92;;
28296;SDS011;62078;49.366;8.172;2023-01-08T22:53:10;4.38;;;1.80;;
28296;SDS011;62078;49.366;8.172;2023-01-08T22:55:39;6.25;;;2.25;;
28296;SDS011;62078;49.366;8.172;2023-01-08T22:58:05;4.70;;;1.80;;
28296;SDS011;62078;49.366;8.172;2023-01-08T23:00:32;8.23;;;1.80;;
28296;SDS011;62078;49.366;8.172;2023-01-08T23:02:58;5.05;;;1.85;;
28296;SDS011;62078;49.366;8.172;2023-01-08T23:05:24;4.95;;;1.90;;
28296;SDS011;62078;49.366;8.172;2023-01-08T23:07:50;5.13;;;2.05;;
28296;SDS011;62078;49.366;8.172;2023-01-08T23:10:16;4.53;;;1.92;;
28296;SDS011;62078;49.366;8.172;2023-01-08T23:12:41;5.38;;;1.75;;
28296;SDS011;62078;49.366;8.172;2023-01-08T23:15:07;6.03;;;2.05;;
28296;SDS011;62078;49.366;8.172;2023-01-08T23:17:36;7.20;;;2.05;;
28296;SDS011;62078;49.366;8.172;2023-01-08T23:20:02;6.10;;;1.75;;
28296;SDS011;62078;49.366;8.172;2023-01-08T23:22:30;7.43;;;1.70;;
28296;SDS011;62078;49.366;8.172;2023-01-08T23:24:56;5.43;;;1.88;;
28296;SDS011;62078;49.366;8.172;2023-01-08T23:27:23;4.38;;;1.55;;
28296;SDS011;62078;49.366;8.172;2023-01-08T23:29:49;5.35;;;2.17;;
28296;SDS011;62078;49.366;8.172;2023-01-08T23:32:15;4.13;;;1.70;;
28296;SDS011;62078;49.366;8.172;2023-01-08T23:34:40;3.38;;;1.55;;
28296;SDS011;62078;49.366;8.172;2023-01-08T23:37:07;5.97;;;2.03;;
28296;SDS011;62078;49.366;8.172;2023-01-08T23:39:33;3.47;;;1.63;;
28296;SDS011;62078;49.366;8.172;2023-01-08T23:41:59;5.70;;;1.98;;
28296;SDS011;62078;49.366;8.172;2023-01-08T23:44:24;4.35;;;1.50;;
28296;SDS011;62078;49.366;8.172;2023-01-08T23:46:50;4.57;;;1.70;;
28296;SDS011;62078;49.366;8.172;2023-01-08T23:49:16;3.45;;;1.38;;
28296;SDS011;62078;49.366;8.172;2023-01-08T23:51:41;4.13;;;1.50;;
28296;SDS011;62078;49.366;8.172;2023-01-08T23:54:07;3.45;;;1.48;;
28296;SDS011;62078;49.366;8.172;2023-01-08T23:56:34;4.32;;;1.60;;
28296;SDS011;62078;49.366;8.172;2023-01-08T23:59:00;6.40;;;1.63;;
